Time;durP1;ratioP1;P1;durP2;ratioP2;P2;SDS_P1;SDS_P2;PMS_P1;PMS_P2;Temp;Humidity;BMP_temperature;BMP_pressure;BME280_temperature;BME280_humidity;BME280_pressure;Samples;Min_cycle;Max_cycle;Signal;HPM_P1;HPM_P2
2021/12/06 00:00:56;;;;;;;62.65;27.95;;;;;;;-2.80;100.00;100840.69;10478133;28;20028;-88
2021/12/06 00:06:06;;;;;;;64.53;30.73;;;;;;;-5.15;100.00;100512.53;10515352;28;20058;-95
2021/12/06 00:11:09;;;;;;;63.57;29.07;;;;;;;-5.19;100.00;100594.38;10511556;28;20043;-88
2021/12/06 00:16:14;;;;;;;66.30;31.67;;;;;;;-5.39;100.00;100647.44;10478589;28;20045;-87
2021/12/06 00:21:14;;;;;;;66.17;32.60;;;;;;;-3.77;100.00;100671.66;10477930;28;20028;-95
2021/12/06 00:26:15;;;;;;;66.70;30.87;;;;;;;-6.35;100.00;100301.66;10479482;28;20024;-86
2021/12/06 00:31:16;;;;;;;71.10;32.13;;;;;;;-4.01;100.00;100693.97;10493809;28;20392;-94
2021/12/06 00:36:26;;;;;;;72.17;32.07;;;;;;;-5.94;100.00;100391.09;10494637;28;20118;-88
2021/12/06 00:41:27;;;;;;;75.55;32.42;;;;;;;-5.29;100.00;100577.56;10495397;28;20024;-95
2021/12/06 00:46:27;;;;;;;65.07;28.17;;;;;;;-2.90;100.00;100898.25;10494493;28;20050;-95
2021/12/06 00:51:31;;;;;;;68.13;30.93;;;;;;;-1.29;100.00;101198.19;10493673;28;20028;-87
2021/12/06 00:56:35;;;;;;;71.13;32.63;;;;;;;-3.04;100.00;100998.56;10494071;28;20039;-95
2021/12/06 01:01:35;;;;;;;72.67;33.23;;;;;;;-6.06;100.00;100364.78;10477450;28;20394;-87
2021/12/06 01:06:38;;;;;;;69.18;32.25;;;;;;;-4.20;100.00;100788.31;10509214;28;20119;-94
2021/12/06 01:11:39;;;;;;;71.03;30.87;;;;;;;-3.61;100.00;100891.50;10477899;28;20040;-87
2021/12/06 01:16:42;;;;;;;74.20;30.67;;;;;;;-7.25;100.00;100154.72;10495617;28;20044;-87
2021/12/06 01:21:53;;;;;;;70.20;31.10;;;;;;;-1.44;100.00;101181.81;10474045;28;20415;-88
2021/12/06 01:27:10;;;;;;;71.10;29.17;;;;;;;-4.41;100.00;100581.78;10478225;28;20031;-94
2021/12/06 01:32:36;;;;;;;71.13;31.53;;;;;;;-3.62;100.00;100809.06;10481702;28;20024;-95
2021/12/06 01:42:56;;;;;;;71.30;31.70;;;;;;;-1.94;100.00;101003.81;10497321;28;20122;-95
2021/12/06 01:47:57;;;;;;;75.77;31.73;;;;;;;-6.02;100.00;100420.56;10476210;28;20150;-95
2021/12/06 01:52:59;;;;;;;67.70;28.93;;;;;;;-2.11;100.00;101095.56;10474808;28;20228;-95
2021/12/06 01:58:01;;;;;;;69.13;30.37;;;;;;;-0.95;100.00;101383.66;10474945;28;20490;-87
2021/12/06 02:03:10;;;;;;;68.97;30.27;;;;;;;-1.77;100.00;101155.81;10476586;28;20036;-87
2021/12/06 02:08:11;;;;;;;72.23;29.60;;;;;;;-3.37;100.00;100949.13;10475080;28;20110;-95
2021/12/06 02:13:12;;;;;;;66.73;29.97;;;;;;;-5.32;100.00;100484.78;10492326;28;20040;-87
2021/12/06 02:18:28;;;;;;;71.77;30.07;;;;;;;-2.49;100.00;100986.44;10488805;28;20036;-94
2021/12/06 02:23:31;;;;;;;80.37;32.60;;;;;;;-4.60;100.00;100556.06;10480489;28;20040;-94
2021/12/06 02:28:31;;;;;;;70.10;28.50;;;;;;;-3.53;100.00;100781.19;10473971;28;20548;-95
2021/12/06 02:33:32;;;;;;;76.60;34.53;;;;;;;-3.80;100.00;100751.84;10508343;28;20028;-94
2021/12/06 02:38:35;;;;;;;78.70;32.13;;;;;;;-5.81;100.00;100486.34;10475737;28;20502;-94
2021/12/06 02:43:36;;;;;;;71.63;30.77;;;;;;;-4.95;100.00;100668.03;10473670;28;20119;-87
2021/12/06 02:48:37;;;;;;;77.60;31.43;;;;;;;-3.75;100.00;100951.28;10503862;28;20079;-87
2021/12/06 02:53:40;;;;;;;77.55;29.92;;;;;;;-2.20;100.00;101122.66;10488668;28;20032;-95
2021/12/06 02:58:55;;;;;;;84.50;33.90;;;;;;;-5.14;100.00;100726.28;10471523;28;20035;-87
2021/12/06 03:03:59;;;;;;;92.53;33.70;;;;;;;-1.83;100.00;101044.81;10492538;28;20467;-95
2021/12/06 03:09:33;;;;;;;94.17;35.07;;;;;;;-1.52;100.00;101165.63;10473550;28;20039;-87
2021/12/06 03:14:40;;;;;;;86.73;34.20;;;;;;;-4.25;100.00;100710.84;10494196;28;20555;-94
2021/12/06 03:19:40;;;;;;;77.90;30.50;;;;;;;-4.76;100.00;100599.81;10474546;28;20043;-93
2021/12/06 03:24:41;;;;;;;88.50;34.40;;;;;;;-4.82;100.00;100796.50;10488707;28;20034;-87
2021/12/06 03:29:44;;;;;;;80.37;31.47;;;;;;;-4.55;100.00;100761.41;10473913;28;20062;-95
2021/12/06 03:34:45;;;;;;;84.27;32.53;;;;;;;-4.90;100.00;100695.22;10486629;28;20127;-87
2021/12/06 03:39:52;;;;;;;84.47;33.23;;;;;;;-5.00;100.00;100750.84;10491272;28;20060;-93
2021/12/06 03:44:52;;;;;;;86.97;32.77;;;;;;;-5.44;100.00;100529.00;10481665;28;20097;-87
2021/12/06 03:49:53;;;;;;;84.87;31.87;;;;;;;-1.25;100.00;101191.44;10486067;28;20078;-87
2021/12/06 03:54:54;;;;;;;88.33;32.30;;;;;;;-3.40;100.00;100962.91;10473560;28;20522;-95
2021/12/06 03:59:54;;;;;;;86.00;32.73;;;;;;;-4.43;100.00;100810.38;10476048;28;20042;-94
2021/12/06 04:04:57;;;;;;;79.90;31.50;;;;;;;-2.93;100.00;101072.88;10493867;28;20024;-95
2021/12/06 04:09:58;;;;;;;87.73;33.53;;;;;;;-2.08;100.00;101132.97;10479295;28;20036;-94
2021/12/06 04:14:58;;;;;;;79.40;30.30;;;;;;;-3.64;100.00;101042.47;10480562;28;20039;-94
2021/12/06 04:19:59;;;;;;;86.07;32.63;;;;;;;-3.28;100.00;101018.16;10480761;28;20025;-95
2021/12/06 04:25:04;;;;;;;95.27;34.43;;;;;;;-3.63;100.00;100826.22;10481009;28;20055;-94
2021/12/06 04:30:06;;;;;;;106.13;38.67;;;;;;;-1.04;100.00;101300.88;10480356;28;20039;-95
2021/12/06 04:35:07;;;;;;;98.60;37.83;;;;;;;-5.20;100.00;100662.47;10476760;28;20407;-87
2021/12/06 04:40:08;;;;;;;90.50;35.30;;;;;;;-4.81;100.00;100672.81;10476909;28;20496;-94
2021/12/06 04:45:10;;;;;;;95.93;34.20;;;;;;;-2.26;100.00;101232.88;10478975;28;20075;-94
2021/12/06 04:50:13;;;;;;;91.83;34.23;;;;;;;-4.95;100.00;100713.66;10477926;28;20036;-87
2021/12/06 04:55:24;;;;;;;88.67;34.40;;;;;;;-2.27;100.00;101268.97;10475414;28;20066;-86
2021/12/06 05:00:30;;;;;;;92.87;33.67;;;;;;;-4.96;100.00;100609.94;10493390;28;20384;-95
2021/12/06 05:05:38;;;;;;;89.55;32.22;;;;;;;-2.21;100.00;101053.53;10478877;28;20057;-94
2021/12/06 05:10:39;;;;;;;89.07;32.53;;;;;;;-1.98;100.00;101095.06;10494288;28;20399;-94
2021/12/06 05:15:39;;;;;;;78.57;28.77;;;;;;;-3.10;100.00;101066.53;10476023;28;20089;-87
2021/12/06 05:20:40;;;;;;;80.13;30.00;;;;;;;-1.06;100.00;101263.19;10475568;28;20429;-94
2021/12/06 05:25:41;;;;;;;82.90;29.37;;;;;;;-2.72;100.00;101000.53;10492485;28;20407;-87
2021/12/06 05:30:44;;;;;;;82.10;30.37;;;;;;;-4.12;100.00;100895.91;10506619;28;20063;-87
2021/12/06 05:35:47;;;;;;;90.03;32.08;;;;;;;-4.85;100.00;100761.91;10491137;28;20028;-95
2021/12/06 05:40:48;;;;;;;78.23;29.33;;;;;;;-6.68;100.00;100367.53;10477236;28;20059;-95
2021/12/06 05:45:49;;;;;;;79.00;29.93;;;;;;;-0.43;100.00;101609.75;10474113;28;20040;-87
2021/12/06 05:50:52;;;;;;;82.35;30.10;;;;;;;-2.71;100.00;101128.03;10489416;28;20036;-87
2021/12/06 05:55:53;;;;;;;78.70;33.40;;;;;;;-1.59;100.00;101233.94;10490806;28;20395;-87
2021/12/06 06:00:57;;;;;;;81.50;30.60;;;;;;;-3.32;100.00;100893.78;10474202;28;20032;-95
2021/12/06 06:05:57;;;;;;;85.37;30.10;;;;;;;-4.83;100.00;100571.94;10476122;28;20092;-94
2021/12/06 06:10:58;;;;;;;83.43;30.77;;;;;;;-2.17;100.00;101235.63;10479640;28;20622;-85
2021/12/06 06:16:01;;;;;;;88.60;33.50;;;;;;;-1.58;100.00;101359.84;10487821;28;20036;-87
2021/12/06 06:21:02;;;;;;;80.70;32.97;;;;;;;-1.43;100.00;101258.28;10473405;28;20042;-87
2021/12/06 06:26:03;;;;;;;91.83;33.73;;;;;;;-3.93;100.00;100962.09;10470235;28;20123;-87
2021/12/06 06:31:03;;;;;;;79.63;32.33;;;;;;;-4.95;100.00;100756.63;10471915;28;20078;-95
2021/12/06 06:36:09;;;;;;;85.37;34.73;;;;;;;-2.05;100.00;101323.34;10488978;28;20039;-87
2021/12/06 06:41:12;;;;;;;76.10;31.87;;;;;;;-5.12;100.00;100657.16;10474760;28;20161;-95
2021/12/06 06:46:20;;;;;;;86.50;32.80;;;;;;;-1.68;100.00;101305.97;10472725;28;20032;-87
2021/12/06 06:51:24;;;;;;;79.75;31.35;;;;;;;-3.54;100.00;101005.56;10471887;28;20044;-93
2021/12/06 06:56:27;;;;;;;72.97;30.30;;;;;;;-3.43;100.00;100987.44;10474110;28;20040;-94
2021/12/06 07:01:27;;;;;;;83.37;31.93;;;;;;;-3.17;100.00;100826.69;10472661;28;20032;-88
2021/12/06 07:06:30;;;;;;;81.60;29.60;;;;;;;-1.00;100.00;101406.78;10488343;28;20016;-94
2021/12/06 07:11:34;;;;;;;86.40;32.63;;;;;;;-3.15;100.00;101025.78;10473722;28;20048;-94
2021/12/06 07:16:46;;;;;;;84.65;31.52;;;;;;;-4.35;100.00;100899.09;10472821;28;20479;-87
2021/12/06 07:21:55;;;;;;;92.17;35.83;;;;;;;-0.83;100.00;101374.22;10474293;28;20407;-88
2021/12/06 07:27:00;;;;;;;92.73;34.37;;;;;;;0.70;100.00;101612.72;10488437;28;20032;-87
2021/12/06 07:32:01;;;;;;;96.73;35.77;;;;;;;-1.95;100.00;101294.41;10503778;28;20028;-94
2021/12/06 07:37:06;;;;;;;93.20;35.87;;;;;;;-4.79;100.00;100798.88;10477297;28;20044;-87
2021/12/06 07:42:11;;;;;;;90.20;34.90;;;;;;;-1.67;100.00;101121.41;10491994;28;20052;-95
2021/12/06 07:47:12;;;;;;;88.00;35.17;;;;;;;-2.35;100.00;101133.25;10503330;28;20046;-94
2021/12/06 07:52:12;;;;;;;92.67;33.87;;;;;;;-6.12;100.00;100371.59;10499519;28;20077;-95
2021/12/06 07:57:13;;;;;;;88.60;34.30;;;;;;;-5.89;100.00;100514.81;10495844;28;20531;-87
2021/12/06 08:02:16;;;;;;;110.63;37.67;;;;;;;-3.30;100.00;100928.63;10498269;28;20028;-93
2021/12/06 08:07:17;;;;;;;97.67;35.57;;;;;;;-2.99;100.00;100939.69;10477509;28;20434;-87
2021/12/06 08:12:18;;;;;;;89.00;34.03;;;;;;;-5.49;100.00;100706.53;10476795;28;20043;-87
2021/12/06 08:17:19;;;;;;;85.97;31.93;;;;;;;-3.45;100.00;100878.09;10492736;28;20044;-86
2021/12/06 08:22:20;;;;;;;83.40;29.07;;;;;;;-5.91;100.00;100557.00;10497604;28;20047;-96
2021/12/06 08:27:21;;;;;;;83.90;32.57;;;;;;;-3.84;100.00;100818.59;10491467;28;20114;-95
2021/12/06 08:32:22;;;;;;;77.83;31.63;;;;;;;-1.11;100.00;101335.84;10502752;28;20054;-94
2021/12/06 08:37:23;;;;;;;70.75;27.25;;;;;;;-2.56;100.00;101026.69;10505966;28;20482;-93
2021/12/06 08:42:23;;;;;;;60.90;26.47;;;;;;;0.94;100.00;101603.72;10481636;28;20047;-94
2021/12/06 08:47:25;;;;;;;67.10;29.07;;;;;;;-3.29;100.00;100938.38;10504995;28;20043;-87
2021/12/06 08:52:29;;;;;;;70.97;26.80;;;;;;;-3.27;100.00;100869.91;10492618;28;20035;-95
2021/12/06 08:57:30;;;;;;;69.20;27.00;;;;;;;-3.03;100.00;101097.22;10480175;28;20028;-95
2021/12/06 09:02:33;;;;;;;60.10;24.73;;;;;;;1.05;100.00;101591.66;10482656;28;20552;-87
2021/12/06 09:07:34;;;;;;;61.57;26.10;;;;;;;-5.19;100.00;100618.53;10490713;28;20093;-87
2021/12/06 09:12:35;;;;;;;67.80;27.03;;;;;;;-2.07;100.00;101052.88;10476572;28;20036;-95
2021/12/06 09:17:38;;;;;;;71.57;29.10;;;;;;;-4.62;100.00;100687.00;10475903;28;20036;-87
2021/12/06 09:22:39;;;;;;;62.40;26.33;;;;;;;-1.53;100.00;101207.16;10474812;28;20051;-87
2021/12/06 09:27:40;;;;;;;59.57;24.97;;;;;;;-2.08;100.00;101154.56;10506964;28;20079;-87
2021/12/06 09:32:40;;;;;;;58.57;25.80;;;;;;;-2.02;100.00;100996.59;10490440;28;20032;-87
2021/12/06 09:37:42;;;;;;;55.53;23.97;;;;;;;-3.92;100.00;100690.28;10489887;28;20077;-87
2021/12/06 09:42:46;;;;;;;55.37;22.37;;;;;;;-3.37;100.00;100871.06;10473855;28;20116;-87
2021/12/06 09:47:52;;;;;;;48.80;21.90;;;;;;;-4.16;100.00;100633.75;10489665;28;20035;-95
2021/12/06 09:52:56;;;;;;;50.80;23.17;;;;;;;-4.60;100.00;100618.69;10478546;28;20090;-87
2021/12/06 09:57:56;;;;;;;54.70;22.43;;;;;;;-5.94;100.00;100492.97;10492250;28;20383;-87
2021/12/06 10:02:57;;;;;;;46.73;24.03;;;;;;;-0.98;100.00;101339.91;10505573;28;20032;-87
2021/12/06 10:07:58;;;;;;;47.25;20.20;;;;;;;-1.07;100.00;101175.06;10472030;28;20047;-87
2021/12/06 10:12:59;;;;;;;43.00;20.47;;;;;;;-0.10;100.00;101312.97;10472227;28;20071;-87
2021/12/06 10:18:00;;;;;;;42.00;19.60;;;;;;;-3.34;100.00;100736.13;10490106;28;20115;-94
2021/12/06 10:23:03;;;;;;;54.78;21.48;;;;;;;-3.72;100.00;100886.38;10475868;28;20093;-92
2021/12/06 10:28:05;;;;;;;47.60;20.97;;;;;;;-2.61;100.00;100861.91;10513319;28;20483;-92
2021/12/06 10:33:09;;;;;;;42.77;19.43;;;;;;;-3.20;100.00;100845.88;10476717;28;20506;-90
2021/12/06 10:38:21;;;;;;;43.30;19.80;;;;;;;-1.29;100.00;101105.50;10491415;28;20039;-94
2021/12/06 10:43:34;;;;;;;39.63;18.20;;;;;;;-4.47;100.00;100530.38;10494014;28;20028;-95
2021/12/06 10:48:36;;;;;;;35.93;17.87;;;;;;;-2.59;100.00;100826.72;10500080;28;20048;-94
2021/12/06 10:53:44;;;;;;;41.80;19.33;;;;;;;-3.14;100.00;100772.50;10487756;28;20042;-94
2021/12/06 10:58:45;;;;;;;40.77;19.00;;;;;;;-2.47;100.00;101008.69;10475296;28;20391;-87
2021/12/06 11:03:53;;;;;;;41.22;18.98;;;;;;;-4.88;100.00;100427.38;10470078;28;20036;-87
2021/12/06 11:08:55;;;;;;;39.60;18.57;;;;;;;-1.56;100.00;101040.06;10486739;28;20059;-87
2021/12/06 11:14:13;;;;;;;39.22;19.35;;;;;;;-2.96;100.00;100846.91;10503623;28;20048;-88
2021/12/06 11:19:17;;;;;;;46.40;21.50;;;;;;;-4.64;100.00;100522.47;10512083;28;20047;-88
2021/12/06 11:24:29;;;;;;;41.23;19.73;;;;;;;-2.67;100.00;100990.13;10486764;28;20095;-95
2021/12/06 11:29:34;;;;;;;42.83;19.50;;;;;;;1.40;100.00;101372.44;10489506;28;20056;-94
2021/12/06 11:34:50;;;;;;;39.38;19.50;;;;;;;-0.06;100.00;101229.56;10505569;28;20040;-95
2021/12/06 11:40:16;;;;;;;39.38;18.38;;;;;;;1.38;100.00;101391.63;10511646;28;20507;-89
2021/12/06 11:45:56;;;;;;;43.50;21.00;;;;;;;1.49;100.00;101389.50;10508820;28;20038;-93
2021/12/06 11:51:00;;;;;;;36.80;18.57;;;;;;;-5.25;100.00;100332.06;10510654;28;20032;-87
2021/12/06 11:56:07;;;;;;;33.05;16.17;;;;;;;-0.31;100.00;101180.09;10502412;28;20036;-92
2021/12/06 12:01:18;;;;;;;37.77;15.37;;;;;;;-0.39;100.00;101048.44;10498996;28;20036;-95
2021/12/06 12:06:41;;;;;;;34.30;15.83;;;;;;;0.11;100.00;101212.22;10511101;28;20036;-88
2021/12/06 12:12:07;;;;;;;38.75;18.38;;;;;;;1.61;100.00;101325.63;10484572;28;20051;-87
2021/12/06 12:17:20;;;;;;;33.38;16.40;;;;;;;-3.19;100.00;100745.22;10509954;28;20052;-88
2021/12/06 12:22:20;;;;;;;31.73;15.50;;;;;;;-3.70;100.00;100523.84;10477672;28;20391;-88
2021/12/06 12:27:38;;;;;;;31.57;15.67;;;;;;;-0.50;100.00;101005.56;10493061;28;20030;-87
2021/12/06 12:32:47;;;;;;;36.23;18.60;;;;;;;-3.80;100.00;100488.22;10498208;28;20040;-89
2021/12/06 12:37:56;;;;;;;40.47;18.70;;;;;;;-2.53;100.00;100885.34;10529763;28;20143;-96
2021/12/06 12:49:19;;;;;;;44.00;20.77;;;;;;;-2.85;100.00;100580.72;10550928;28;20036;-89
2021/12/06 12:54:32;;;;;;;38.20;19.97;;;;;;;-0.79;100.00;100966.50;10479785;28;20061;-89
2021/12/06 12:59:57;;;;;;;46.50;21.20;;;;;;;-3.83;100.00;100432.09;10483621;28;20135;-88
2021/12/06 13:05:05;;;;;;;47.50;22.60;;;;;;;1.77;100.00;101244.03;10485788;28;20032;-94
2021/12/06 13:10:23;;;;;;;45.15;21.38;;;;;;;1.73;100.00;101228.31;10484457;28;20040;-88
2021/12/06 13:15:55;;;;;;;42.50;22.17;;;;;;;1.80;100.00;101219.22;10501136;28;20045;-94
2021/12/06 13:20:56;;;;;;;40.43;20.60;;;;;;;-2.48;100.00;100678.94;10467923;28;20041;-89
2021/12/06 13:26:16;;;;;;;41.30;21.20;;;;;;;-2.40;100.00;100658.34;10467327;28;20029;-89
2021/12/06 13:31:31;;;;;;;48.47;24.07;;;;;;;-3.49;100.00;100555.66;10457316;28;20037;-92
2021/12/06 13:36:50;;;;;;;39.53;19.10;;;;;;;-2.51;100.00;100608.38;10477582;28;20044;-89
2021/12/06 13:41:51;;;;;;;34.35;18.33;;;;;;;-0.49;100.00;100966.69;10449641;28;20127;-89
2021/12/06 13:46:52;;;;;;;39.97;20.27;;;;;;;-2.66;100.00;100676.47;10482151;28;20111;-88
2021/12/06 13:52:01;;;;;;;39.80;19.80;;;;;;;-0.48;100.00;100866.41;10448740;28;20028;-91
2021/12/06 13:57:06;;;;;;;39.83;19.35;;;;;;;-0.52;100.00;100861.56;10448179;28;20067;-86
2021/12/06 14:02:18;;;;;;;47.03;20.80;;;;;;;0.67;100.00;101002.53;10450807;28;20044;-95
2021/12/06 14:07:20;;;;;;;41.47;21.50;;;;;;;-3.15;100.00;100380.34;10463080;28;20081;-93
2021/12/06 14:12:24;;;;;;;42.92;22.73;;;;;;;-4.24;100.00;100300.44;10476467;28;20081;-87
2021/12/06 14:17:25;;;;;;;41.27;20.60;;;;;;;1.83;100.00;101236.19;10488166;28;20073;-86
2021/12/06 14:22:27;;;;;;;42.53;20.97;;;;;;;-2.26;100.00;100525.47;10472180;28;20396;-88
2021/12/06 14:27:30;;;;;;;35.38;19.08;;;;;;;0.44;100.00;101017.00;10504709;28;20031;-87
2021/12/06 14:32:55;;;;;;;;;;;;;;;;;;;;;
2021/12/06 14:38:00;;;;;;;42.05;19.85;;;;;;;-5.88;100.00;99940.13;10515783;28;20135;-89
2021/12/06 14:43:26;;;;;;;;;;;;;;;;;;;;;
2021/12/06 15:00:29;;;;;;;51.43;23.90;;;;;;;-1.35;100.00;100811.81;10511132;28;20036;-87
2021/12/06 15:05:37;;;;;;;42.80;20.33;;;;;;;1.67;100.00;101033.63;10494529;28;20046;-94
2021/12/06 15:10:45;;;;;;;44.87;22.13;;;;;;;-0.16;100.00;100798.66;10508489;28;20082;-95
2021/12/06 15:15:49;;;;;;;48.60;22.10;;;;;;;-2.55;100.00;100397.63;10473473;28;20419;-94
2021/12/06 15:21:00;;;;;;;36.17;19.57;;;;;;;-3.85;100.00;100309.38;10487034;28;20028;-95
2021/12/06 15:26:06;;;;;;;42.83;20.40;;;;;;;-1.88;100.00;100491.31;10512191;28;20399;-87
2021/12/06 15:31:09;;;;;;;39.97;20.33;;;;;;;-1.68;100.00;100604.13;10471017;28;20035;-88
2021/12/06 15:36:14;;;;;;;41.57;21.77;;;;;;;-0.38;100.00;100760.66;10469838;28;20372;-87
2021/12/06 15:41:21;;;;;;;42.00;21.80;;;;;;;-4.69;100.00;100182.69;10471084;28;20032;-87
2021/12/06 15:46:31;;;;;;;44.90;22.30;;;;;;;-2.43;100.00;100584.06;10486605;28;20067;-88
2021/12/06 15:51:42;;;;;;;46.03;23.53;;;;;;;-3.72;100.00;100292.69;10488880;28;20036;-88
2021/12/06 15:56:43;;;;;;;46.20;22.13;;;;;;;-2.73;100.00;100335.97;10472094;28;20029;-88
2021/12/06 16:02:14;;;;;;;45.07;23.30;;;;;;;-2.44;100.00;100382.88;10470413;28;20084;-94
2021/12/06 16:07:51;;;;;;;45.67;22.47;;;;;;;1.70;100.00;100971.69;10481189;28;20047;-87
2021/12/06 16:12:57;;;;;;;39.15;21.52;;;;;;;1.72;100.00;100966.91;10498780;28;20411;-87
2021/12/06 16:17:59;;;;;;;38.35;21.38;;;;;;;-3.50;100.00;100277.59;10510968;28;20029;-87
2021/12/06 16:23:08;;;;;;;38.50;19.07;;;;;;;-2.70;100.00;100502.66;10479564;28;20510;-95
2021/12/06 16:28:12;;;;;;;40.17;19.70;;;;;;;-3.48;100.00;100138.31;10491233;28;20054;-96
2021/12/06 16:33:37;;;;;;;38.17;18.38;;;;;;;1.75;100.00;100966.50;10500030;28;20502;-89
2021/12/06 16:38:40;;;;;;;39.95;19.88;;;;;;;-2.77;100.00;100353.53;10492951;28;20035;-88
2021/12/06 16:43:44;;;;;;;40.27;19.90;;;;;;;-3.63;100.00;100419.94;10477132;28;20051;-88
2021/12/06 16:48:54;;;;;;;42.53;22.30;;;;;;;1.76;100.00;101163.63;10511220;28;20028;-88
2021/12/06 16:54:17;;;;;;;51.10;24.33;;;;;;;-4.64;100.00;99910.88;10477836;28;20063;-89
2021/12/06 16:59:46;;;;;;;45.70;23.20;;;;;;;-4.78;100.00;100124.63;10516215;28;20034;-89
2021/12/06 17:04:56;;;;;;;54.15;25.92;;;;;;;-2.40;100.00;100300.63;10495763;28;20048;-89
2021/12/06 17:09:58;;;;;;;52.07;23.43;;;;;;;-1.96;100.00;100382.59;10475691;28;20107;-88
2021/12/06 17:15:19;;;;;;;50.37;23.03;;;;;;;1.77;100.00;100921.00;10480311;28;20070;-95
2021/12/06 17:20:36;;;;;;;;;;;;;;;;;;;;;
2021/12/06 17:26:25;;;;;;;55.80;26.53;;;;;;;-2.47;100.00;100200.81;10525019;28;20127;-95
2021/12/06 17:31:37;;;;;;;53.90;26.17;;;;;;;-4.46;100.00;100042.25;10515312;28;20036;-88
2021/12/06 17:36:57;;;;;;;54.38;26.80;;;;;;;-4.03;100.00;100101.78;10475321;28;20036;-89
2021/12/06 17:48:26;;;;;;;62.40;29.23;;;;;;;-3.29;100.00;100386.50;10577516;28;20028;-89
2021/12/06 17:53:47;;;;;;;63.10;30.37;;;;;;;-5.76;100.00;99894.22;10469444;28;20097;-88
2021/12/06 17:58:54;;;;;;;67.63;29.75;;;;;;;-1.54;100.00;100573.66;10474835;28;20239;-88
2021/12/06 18:03:58;;;;;;;70.53;31.90;;;;;;;-5.56;100.00;99933.03;10492190;28;20115;-87
2021/12/06 18:08:58;;;;;;;70.37;33.03;;;;;;;-2.86;100.00;100438.94;10472970;28;20040;-87
2021/12/06 18:14:04;;;;;;;72.10;32.70;;;;;;;-6.40;100.00;99806.66;10496426;28;20066;-89
2021/12/06 18:19:07;;;;;;;66.97;32.03;;;;;;;-1.38;100.00;100461.13;10482393;28;20023;-93
2021/12/06 18:24:11;;;;;;;76.33;31.67;;;;;;;-0.24;100.00;100659.72;10492166;28;20040;-94
2021/12/06 18:29:14;;;;;;;69.30;29.47;;;;;;;-2.52;100.00;100267.06;10476524;28;20024;-88
2021/12/06 18:34:15;;;;;;;77.13;33.17;;;;;;;-1.06;100.00;100679.53;10490856;28;20024;-87
2021/12/06 18:39:20;;;;;;;70.20;32.37;;;;;;;-0.33;100.00;100760.09;10474851;28;20058;-95
2021/12/06 18:44:47;;;;;;;80.10;35.40;;;;;;;-2.90;100.00;100199.75;10476090;28;20035;-94
2021/12/06 18:49:51;;;;;;;71.57;32.77;;;;;;;-2.88;100.00;100333.22;10479590;28;20427;-88
2021/12/06 18:54:55;;;;;;;79.47;33.13;;;;;;;-3.22;100.00;100145.19;10475363;28;20040;-87
2021/12/06 19:00:05;;;;;;;;;;;;;;;;;;;;;
2021/12/06 19:05:15;;;;;;;70.85;32.33;;;;;;;-2.90;100.00;100188.97;10493077;28;20097;-88
2021/12/06 19:10:16;;;;;;;77.10;33.78;;;;;;;-3.50;100.00;100225.63;10459114;28;20486;-89
2021/12/06 19:15:38;;;;;;;72.43;31.00;;;;;;;-3.69;100.00;99996.41;10430805;28;20040;-89
2021/12/06 19:20:46;;;;;;;74.70;31.65;;;;;;;-6.61;100.00;99578.81;10447323;28;20036;-89
2021/12/06 19:25:56;;;;;;;70.57;35.80;;;;;;;-2.22;100.00;100413.53;10431686;28;20040;-88
2021/12/06 19:31:14;;;;;;;;;;;;;;;;;;;;;
2021/12/06 19:36:33;;;;;;;76.35;33.92;;;;;;;-3.38;100.00;100240.34;10450052;28;20032;-88
2021/12/06 19:41:33;;;;;;;76.63;34.27;;;;;;;-2.57;100.00;100253.31;10439975;28;20028;-89
2021/12/06 19:46:45;;;;;;;77.40;34.77;;;;;;;-3.57;100.00;100077.53;10438080;28;20924;-89
2021/12/06 19:51:57;;;;;;;71.00;34.53;;;;;;;-3.29;100.00;100002.41;10441588;28;20028;-89
2021/12/06 19:57:00;;;;;;;67.90;30.83;;;;;;;-3.23;100.00;100054.66;10455698;28;20479;-89
2021/12/06 20:02:14;;;;;;;;;;;;;;;;;;;;;
2021/12/06 20:07:20;;;;;;;54.47;26.63;;;;;;;-2.86;100.00;100206.44;10460848;28;20572;-90
2021/12/06 20:12:22;;;;;;;;;;;;;;;1.22;100.00;100645.94;10497476;28;20700;-90
2021/12/06 20:17:28;;;;;;;55.10;26.17;;;;;;;-0.23;100.00;100420.66;10495361;28;19912;-88
2021/12/06 20:22:31;;;;;;;49.72;26.35;;;;;;;-4.42;100.00;99836.69;10480156;28;20097;-89
2021/12/06 20:27:36;;;;;;;50.80;25.63;;;;;;;-3.77;100.00;100090.63;10495217;28;20093;-88
2021/12/06 20:32:54;;;;;;;47.67;22.90;;;;;;;-3.79;100.00;99779.84;10486175;28;20043;-89
2021/12/06 20:38:03;;;;;;;41.33;23.13;;;;;;;1.16;100.00;100718.06;10480410;28;20035;-89
2021/12/06 20:43:04;;;;;;;40.50;20.47;;;;;;;-0.43;100.00;100398.81;10476565;28;20040;-89
2021/12/06 20:48:05;;;;;;;43.03;22.57;;;;;;;-1.96;100.00;100115.53;10476358;28;20077;-89
2021/12/06 20:53:24;;;;;;;35.50;19.43;;;;;;;-6.92;100.00;99438.63;10476957;28;20442;-88
2021/12/06 20:58:33;;;;;;;41.63;21.83;;;;;;;-3.98;100.00;99849.31;10477429;28;20430;-89
2021/12/06 21:03:33;;;;;;;35.90;22.53;;;;;;;-1.52;100.00;100165.81;10495999;28;20403;-89
2021/12/06 21:20:15;;;;;;;37.50;19.27;;;;;;;-1.99;100.00;100084.38;10498785;28;20186;-87
2021/12/06 21:25:28;;;;;;;34.20;17.60;;;;;;;-2.40;100.00;100141.56;10478432;28;20036;-89
2021/12/06 21:30:49;;;;;;;32.37;17.33;;;;;;;-6.08;100.00;99515.50;10501139;28;20031;-89
2021/12/06 21:37:07;;;;;;;31.10;16.87;;;;;;;-3.07;100.00;99800.53;10477448;28;20036;-90
2021/12/06 21:42:20;;;;;;;29.57;17.10;;;;;;;-3.79;100.00;99728.75;10508258;28;20074;-89
2021/12/06 22:00:27;;;;;;;;;;;;;;;;;;;;;
2021/12/06 22:05:43;;;;;;;27.40;15.23;;;;;;;-3.43;100.00;99967.41;10359084;28;20101;-91
2021/12/06 22:11:34;;;;;;;;;;;;;;;;;;;;;
2021/12/06 22:17:09;;;;;;;25.57;15.33;;;;;;;-3.20;100.00;99768.09;10498965;28;20040;-89
2021/12/06 22:23:00;;;;;;;40.00;15.70;;;;;;;-5.51;100.00;99624.09;10491590;28;20430;-90
2021/12/06 22:28:41;;;;;;;;;;;;;;;;;;;;;
2021/12/06 22:34:20;;;;;;;21.88;12.02;;;;;;;-6.20;100.00;99196.38;10499591;28;20441;-89
2021/12/06 22:39:25;;;;;;;20.43;11.90;;;;;;;-1.01;100.00;100244.00;10506810;28;20490;-89
2021/12/06 22:44:36;;;;;;;23.97;13.73;;;;;;;-2.28;100.00;99989.09;10474760;28;20067;-96
2021/12/06 22:49:57;;;;;;;;;;;;;;;;;;;;;
2021/12/06 22:55:46;;;;;;;20.30;11.10;;;;;;;-2.69;100.00;99797.56;10494617;28;20051;-96
2021/12/06 23:01:16;;;;;;;21.30;11.93;;;;;;;-5.14;100.00;99486.38;10512902;28;20040;-91
2021/12/06 23:06:31;;;;;;;;;;;;;;;;;;;;;
2021/12/06 23:11:53;;;;;;;22.10;12.23;;;;;;;-4.19;100.00;99814.28;10513208;28;20056;-91
2021/12/06 23:17:01;;;;;;;19.57;11.97;;;;;;;-3.75;100.00;99824.19;10478980;28;20044;-96
2021/12/06 23:22:07;;;;;;;24.33;14.10;;;;;;;-2.86;100.00;99958.63;10474744;28;20028;-96
2021/12/06 23:27:11;;;;;;;24.17;14.68;;;;;;;-4.38;100.00;99514.72;10476891;28;20028;-95
2021/12/06 23:32:12;;;;;;;24.63;14.53;;;;;;;-3.83;100.00;99724.78;10473151;28;20032;-96
2021/12/06 23:37:15;;;;;;;21.77;12.90;;;;;;;-1.33;100.00;100048.22;10490508;28;20407;-95
2021/12/06 23:47:25;;;;;;;22.50;13.73;;;;;;;-4.47;100.00;99727.06;10490902;28;20510;-95
2021/12/06 23:52:33;;;;;;;23.73;14.27;;;;;;;-6.51;100.00;99223.31;10473058;28;20387;-90
2021/12/06 23:57:36;;;;;;;21.60;12.60;;;;;;;-5.80;100.00;99297.81;10472957;28;20035;-89
